sensor_id;sensor_type;location;lat;lon;timestamp;P1;durP1;ratioP1;P2;durP2;ratioP2
57401;SDS011;43226;51.110;6.998;2024-01-06T00:00:31;7.80;;;5.50;;
57401;SDS011;43226;51.110;6.998;2024-01-06T00:02:56;9.47;;;6.47;;
57401;SDS011;43226;51.110;6.998;2024-01-06T00:05:21;5.97;;;5.00;;
57401;SDS011;43226;51.110;6.998;2024-01-06T00:07:46;7.20;;;6.03;;
57401;SDS011;43226;51.110;6.998;2024-01-06T00:10:12;7.27;;;5.77;;
57401;SDS011;43226;51.110;6.998;2024-01-06T00:12:37;12.67;;;7.30;;
57401;SDS011;43226;51.110;6.998;2024-01-06T00:15:03;12.77;;;6.47;;
57401;SDS011;43226;51.110;6.998;2024-01-06T00:17:28;10.40;;;6.63;;
57401;SDS011;43226;51.110;6.998;2024-01-06T00:19:53;12.83;;;7.47;;
57401;SDS011;43226;51.110;6.998;2024-01-06T00:22:19;10.83;;;6.97;;
57401;SDS011;43226;51.110;6.998;2024-01-06T00:24:45;11.10;;;7.53;;
57401;SDS011;43226;51.110;6.998;2024-01-06T00:27:10;14.53;;;7.90;;
57401;SDS011;43226;51.110;6.998;2024-01-06T00:29:35;10.20;;;6.80;;
57401;SDS011;43226;51.110;6.998;2024-01-06T00:32:00;10.57;;;7.90;;
57401;SDS011;43226;51.110;6.998;2024-01-06T00:34:25;11.07;;;7.93;;
57401;SDS011;43226;51.110;6.998;2024-01-06T00:36:51;11.03;;;7.70;;
57401;SDS011;43226;51.110;6.998;2024-01-06T00:39:16;9.23;;;7.60;;
57401;SDS011;43226;51.110;6.998;2024-01-06T00:41:41;10.67;;;6.60;;
57401;SDS011;43226;51.110;6.998;2024-01-06T00:44:06;12.80;;;8.37;;
57401;SDS011;43226;51.110;6.998;2024-01-06T00:46:31;10.60;;;8.07;;
57401;SDS011;43226;51.110;6.998;2024-01-06T00:48:56;15.93;;;7.63;;
57401;SDS011;43226;51.110;6.998;2024-01-06T00:51:22;11.63;;;8.13;;
57401;SDS011;43226;51.110;6.998;2024-01-06T00:53:47;13.40;;;8.70;;
57401;SDS011;43226;51.110;6.998;2024-01-06T00:56:12;11.10;;;8.30;;
57401;SDS011;43226;51.110;6.998;2024-01-06T00:58:37;13.03;;;9.03;;
57401;SDS011;43226;51.110;6.998;2024-01-06T01:01:03;13.97;;;8.40;;
57401;SDS011;43226;51.110;6.998;2024-01-06T01:03:28;13.17;;;8.87;;
57401;SDS011;43226;51.110;6.998;2024-01-06T01:05:53;16.07;;;9.83;;
57401;SDS011;43226;51.110;6.998;2024-01-06T01:08:18;13.00;;;9.60;;
57401;SDS011;43226;51.110;6.998;2024-01-06T01:10:43;16.40;;;10.60;;
57401;SDS011;43226;51.110;6.998;2024-01-06T01:13:10;13.23;;;9.60;;
57401;SDS011;43226;51.110;6.998;2024-01-06T01:15:35;15.80;;;10.50;;
57401;SDS011;43226;51.110;6.998;2024-01-06T01:18:00;14.20;;;9.23;;
57401;SDS011;43226;51.110;6.998;2024-01-06T01:20:25;14.13;;;9.07;;
57401;SDS011;43226;51.110;6.998;2024-01-06T01:22:50;18.30;;;9.77;;
57401;SDS011;43226;51.110;6.998;2024-01-06T01:25:16;13.13;;;9.37;;
57401;SDS011;43226;51.110;6.998;2024-01-06T01:27:41;18.97;;;11.27;;
57401;SDS011;43226;51.110;6.998;2024-01-06T01:30:06;15.10;;;10.10;;
57401;SDS011;43226;51.110;6.998;2024-01-06T01:32:32;17.47;;;10.30;;
57401;SDS011;43226;51.110;6.998;2024-01-06T01:34:57;19.60;;;10.87;;
57401;SDS011;43226;51.110;6.998;2024-01-06T01:37:22;14.87;;;10.43;;
57401;SDS011;43226;51.110;6.998;2024-01-06T01:39:47;16.33;;;9.87;;
57401;SDS011;43226;51.110;6.998;2024-01-06T01:42:12;14.43;;;9.80;;
57401;SDS011;43226;51.110;6.998;2024-01-06T01:44:37;21.03;;;11.00;;
57401;SDS011;43226;51.110;6.998;2024-01-06T01:47:04;15.20;;;9.93;;
57401;SDS011;43226;51.110;6.998;2024-01-06T01:49:30;19.27;;;10.43;;
57401;SDS011;43226;51.110;6.998;2024-01-06T01:51:55;21.25;;;10.15;;
57401;SDS011;43226;51.110;6.998;2024-01-06T01:54:20;15.70;;;10.40;;
57401;SDS011;43226;51.110;6.998;2024-01-06T01:56:45;18.40;;;11.60;;
57401;SDS011;43226;51.110;6.998;2024-01-06T01:59:11;19.37;;;11.50;;
57401;SDS011;43226;51.110;6.998;2024-01-06T02:01:37;20.27;;;10.50;;
57401;SDS011;43226;51.110;6.998;2024-01-06T02:04:02;17.57;;;11.27;;
57401;SDS011;43226;51.110;6.998;2024-01-06T02:06:28;20.97;;;11.57;;
57401;SDS011;43226;51.110;6.998;2024-01-06T02:08:53;18.43;;;10.80;;
57401;SDS011;43226;51.110;6.998;2024-01-06T02:11:18;20.23;;;12.03;;
57401;SDS011;43226;51.110;6.998;2024-01-06T02:13:43;19.40;;;11.13;;
57401;SDS011;43226;51.110;6.998;2024-01-06T02:16:08;26.43;;;12.53;;
57401;SDS011;43226;51.110;6.998;2024-01-06T02:18:34;21.97;;;12.33;;
57401;SDS011;43226;51.110;6.998;2024-01-06T02:21:00;21.50;;;12.53;;
57401;SDS011;43226;51.110;6.998;2024-01-06T02:23:25;20.07;;;13.07;;
57401;SDS011;43226;51.110;6.998;2024-01-06T02:25:51;21.30;;;13.23;;
57401;SDS011;43226;51.110;6.998;2024-01-06T02:28:16;25.13;;;13.37;;
57401;SDS011;43226;51.110;6.998;2024-01-06T02:30:41;19.73;;;12.60;;
57401;SDS011;43226;51.110;6.998;2024-01-06T02:33:06;22.43;;;12.53;;
57401;SDS011;43226;51.110;6.998;2024-01-06T02:35:32;23.27;;;12.40;;
57401;SDS011;43226;51.110;6.998;2024-01-06T02:37:57;23.60;;;13.80;;
57401;SDS011;43226;51.110;6.998;2024-01-06T02:40:22;28.77;;;13.33;;
57401;SDS011;43226;51.110;6.998;2024-01-06T02:42:47;23.40;;;13.07;;
57401;SDS011;43226;51.110;6.998;2024-01-06T02:45:12;21.87;;;13.17;;
57401;SDS011;43226;51.110;6.998;2024-01-06T02:47:37;19.83;;;12.57;;
57401;SDS011;43226;51.110;6.998;2024-01-06T02:50:03;24.07;;;13.20;;
57401;SDS011;43226;51.110;6.998;2024-01-06T02:52:28;18.60;;;11.50;;
57401;SDS011;43226;51.110;6.998;2024-01-06T02:54:53;25.63;;;14.13;;
57401;SDS011;43226;51.110;6.998;2024-01-06T02:57:18;20.33;;;12.10;;
57401;SDS011;43226;51.110;6.998;2024-01-06T02:59:44;22.67;;;12.73;;
57401;SDS011;43226;51.110;6.998;2024-01-06T03:02:11;21.10;;;12.43;;
57401;SDS011;43226;51.110;6.998;2024-01-06T03:04:36;22.03;;;13.07;;
57401;SDS011;43226;51.110;6.998;2024-01-06T03:07:01;19.60;;;11.93;;
57401;SDS011;43226;51.110;6.998;2024-01-06T03:09:26;22.40;;;12.70;;
57401;SDS011;43226;51.110;6.998;2024-01-06T03:11:51;18.73;;;12.43;;
57401;SDS011;43226;51.110;6.998;2024-01-06T03:14:17;26.70;;;13.57;;
57401;SDS011;43226;51.110;6.998;2024-01-06T03:16:42;20.50;;;12.70;;
57401;SDS011;43226;51.110;6.998;2024-01-06T03:19:07;19.00;;;12.70;;
57401;SDS011;43226;51.110;6.998;2024-01-06T03:21:32;21.03;;;12.03;;
57401;SDS011;43226;51.110;6.998;2024-01-06T03:23:57;22.07;;;12.87;;
57401;SDS011;43226;51.110;6.998;2024-01-06T03:26:22;23.77;;;14.67;;
57401;SDS011;43226;51.110;6.998;2024-01-06T03:28:49;22.37;;;13.20;;
57401;SDS011;43226;51.110;6.998;2024-01-06T03:31:14;26.83;;;13.90;;
57401;SDS011;43226;51.110;6.998;2024-01-06T03:33:39;27.73;;;13.03;;
57401;SDS011;43226;51.110;6.998;2024-01-06T03:36:05;25.67;;;13.80;;
57401;SDS011;43226;51.110;6.998;2024-01-06T03:38:31;23.40;;;12.47;;
57401;SDS011;43226;51.110;6.998;2024-01-06T03:40:56;23.23;;;13.63;;
57401;SDS011;43226;51.110;6.998;2024-01-06T03:43:21;28.83;;;14.30;;
57401;SDS011;43226;51.110;6.998;2024-01-06T03:45:47;22.80;;;13.50;;
57401;SDS011;43226;51.110;6.998;2024-01-06T03:48:13;24.60;;;12.50;;
57401;SDS011;43226;51.110;6.998;2024-01-06T03:50:38;29.23;;;15.60;;
57401;SDS011;43226;51.110;6.998;2024-01-06T03:53:03;26.70;;;13.43;;
57401;SDS011;43226;51.110;6.998;2024-01-06T03:55:28;25.70;;;14.60;;
57401;SDS011;43226;51.110;6.998;2024-01-06T03:57:53;23.53;;;13.20;;
57401;SDS011;43226;51.110;6.998;2024-01-06T04:00:19;26.73;;;14.20;;
57401;SDS011;43226;51.110;6.998;2024-01-06T04:02:44;28.13;;;15.63;;
57401;SDS011;43226;51.110;6.998;2024-01-06T04:05:09;30.70;;;15.40;;
57401;SDS011;43226;51.110;6.998;2024-01-06T04:07:34;31.47;;;15.10;;
57401;SDS011;43226;51.110;6.998;2024-01-06T04:09:59;26.63;;;14.50;;
57401;SDS011;43226;51.110;6.998;2024-01-06T04:12:24;26.83;;;13.73;;
57401;SDS011;43226;51.110;6.998;2024-01-06T04:14:50;28.03;;;14.17;;
57401;SDS011;43226;51.110;6.998;2024-01-06T04:17:15;30.57;;;14.27;;
57401;SDS011;43226;51.110;6.998;2024-01-06T04:19:40;33.90;;;16.33;;
57401;SDS011;43226;51.110;6.998;2024-01-06T04:22:05;34.23;;;16.20;;
57401;SDS011;43226;51.110;6.998;2024-01-06T04:24:30;34.73;;;15.97;;
57401;SDS011;43226;51.110;6.998;2024-01-06T04:26:56;35.93;;;14.90;;
57401;SDS011;43226;51.110;6.998;2024-01-06T04:29:21;34.97;;;15.50;;
57401;SDS011;43226;51.110;6.998;2024-01-06T04:31:46;33.03;;;16.27;;
57401;SDS011;43226;51.110;6.998;2024-01-06T04:34:11;33.97;;;15.33;;
57401;SDS011;43226;51.110;6.998;2024-01-06T04:36:36;31.30;;;14.90;;
57401;SDS011;43226;51.110;6.998;2024-01-06T04:39:02;32.93;;;15.77;;
57401;SDS011;43226;51.110;6.998;2024-01-06T04:41:27;30.60;;;16.10;;
57401;SDS011;43226;51.110;6.998;2024-01-06T04:43:52;33.30;;;16.17;;
57401;SDS011;43226;51.110;6.998;2024-01-06T04:46:17;33.73;;;14.93;;
57401;SDS011;43226;51.110;6.998;2024-01-06T04:48:42;32.60;;;16.10;;
57401;SDS011;43226;51.110;6.998;2024-01-06T04:51:08;37.60;;;15.30;;
57401;SDS011;43226;51.110;6.998;2024-01-06T04:53:35;36.77;;;16.70;;
57401;SDS011;43226;51.110;6.998;2024-01-06T04:56:00;30.17;;;13.23;;
57401;SDS011;43226;51.110;6.998;2024-01-06T04:58:26;30.77;;;12.97;;
57401;SDS011;43226;51.110;6.998;2024-01-06T05:00:51;26.37;;;12.00;;
57401;SDS011;43226;51.110;6.998;2024-01-06T05:03:17;23.93;;;11.50;;
57401;SDS011;43226;51.110;6.998;2024-01-06T05:05:43;24.33;;;10.10;;
57401;SDS011;43226;51.110;6.998;2024-01-06T05:08:08;18.47;;;9.70;;
57401;SDS011;43226;51.110;6.998;2024-01-06T05:10:33;20.47;;;10.37;;
57401;SDS011;43226;51.110;6.998;2024-01-06T05:12:58;19.40;;;9.20;;
57401;SDS011;43226;51.110;6.998;2024-01-06T05:15:23;20.63;;;10.03;;
57401;SDS011;43226;51.110;6.998;2024-01-06T05:17:48;23.67;;;10.80;;
57401;SDS011;43226;51.110;6.998;2024-01-06T05:20:13;18.40;;;9.20;;
57401;SDS011;43226;51.110;6.998;2024-01-06T05:22:39;19.10;;;9.20;;
57401;SDS011;43226;51.110;6.998;2024-01-06T05:25:04;20.90;;;8.97;;
57401;SDS011;43226;51.110;6.998;2024-01-06T05:27:29;25.77;;;10.90;;
57401;SDS011;43226;51.110;6.998;2024-01-06T05:29:54;19.03;;;8.30;;
57401;SDS011;43226;51.110;6.998;2024-01-06T05:32:20;22.90;;;10.90;;
57401;SDS011;43226;51.110;6.998;2024-01-06T05:34:45;18.60;;;9.17;;
57401;SDS011;43226;51.110;6.998;2024-01-06T05:37:10;21.87;;;9.77;;
57401;SDS011;43226;51.110;6.998;2024-01-06T05:39:37;21.67;;;9.90;;
57401;SDS011;43226;51.110;6.998;2024-01-06T05:42:02;19.37;;;9.87;;
57401;SDS011;43226;51.110;6.998;2024-01-06T05:44:28;21.07;;;9.60;;
57401;SDS011;43226;51.110;6.998;2024-01-06T05:46:53;19.33;;;9.40;;
57401;SDS011;43226;51.110;6.998;2024-01-06T05:49:19;17.50;;;7.53;;
57401;SDS011;43226;51.110;6.998;2024-01-06T05:51:44;16.20;;;8.47;;
57401;SDS011;43226;51.110;6.998;2024-01-06T05:54:10;20.67;;;8.43;;
57401;SDS011;43226;51.110;6.998;2024-01-06T05:56:35;17.17;;;8.80;;
57401;SDS011;43226;51.110;6.998;2024-01-06T05:59:00;17.13;;;7.23;;
57401;SDS011;43226;51.110;6.998;2024-01-06T06:01:25;17.03;;;7.67;;
57401;SDS011;43226;51.110;6.998;2024-01-06T06:03:50;15.23;;;7.77;;
57401;SDS011;43226;51.110;6.998;2024-01-06T06:06:16;12.27;;;6.10;;
57401;SDS011;43226;51.110;6.998;2024-01-06T06:08:42;15.70;;;7.30;;
57401;SDS011;43226;51.110;6.998;2024-01-06T06:11:07;13.10;;;6.57;;
57401;SDS011;43226;51.110;6.998;2024-01-06T06:13:40;17.97;;;8.07;;
57401;SDS011;43226;51.110;6.998;2024-01-06T06:16:06;13.50;;;7.07;;
57401;SDS011;43226;51.110;6.998;2024-01-06T06:18:31;19.03;;;8.00;;
57401;SDS011;43226;51.110;6.998;2024-01-06T06:20:57;12.87;;;7.70;;
57401;SDS011;43226;51.110;6.998;2024-01-06T06:23:23;16.03;;;7.50;;
57401;SDS011;43226;51.110;6.998;2024-01-06T06:25:48;15.23;;;7.23;;
57401;SDS011;43226;51.110;6.998;2024-01-06T06:28:13;16.80;;;8.70;;
57401;SDS011;43226;51.110;6.998;2024-01-06T06:30:38;16.27;;;8.50;;
57401;SDS011;43226;51.110;6.998;2024-01-06T06:33:04;16.53;;;7.87;;
57401;SDS011;43226;51.110;6.998;2024-01-06T06:35:29;20.87;;;7.90;;
57401;SDS011;43226;51.110;6.998;2024-01-06T06:37:54;22.40;;;9.37;;
57401;SDS011;43226;51.110;6.998;2024-01-06T06:40:19;18.77;;;9.20;;
57401;SDS011;43226;51.110;6.998;2024-01-06T06:42:45;19.47;;;7.83;;
57401;SDS011;43226;51.110;6.998;2024-01-06T06:45:10;15.13;;;7.10;;
57401;SDS011;43226;51.110;6.998;2024-01-06T06:47:38;18.33;;;8.07;;
57401;SDS011;43226;51.110;6.998;2024-01-06T06:50:03;16.63;;;8.47;;
57401;SDS011;43226;51.110;6.998;2024-01-06T06:52:28;16.57;;;7.37;;
57401;SDS011;43226;51.110;6.998;2024-01-06T06:54:53;18.43;;;7.43;;
57401;SDS011;43226;51.110;6.998;2024-01-06T06:57:19;15.00;;;7.93;;
57401;SDS011;43226;51.110;6.998;2024-01-06T06:59:44;14.43;;;6.87;;
57401;SDS011;43226;51.110;6.998;2024-01-06T07:02:09;18.23;;;8.97;;
57401;SDS011;43226;51.110;6.998;2024-01-06T07:04:34;15.87;;;7.27;;
57401;SDS011;43226;51.110;6.998;2024-01-06T07:07:00;14.47;;;7.70;;
57401;SDS011;43226;51.110;6.998;2024-01-06T07:09:25;17.13;;;7.20;;
57401;SDS011;43226;51.110;6.998;2024-01-06T07:11:50;13.57;;;7.90;;
57401;SDS011;43226;51.110;6.998;2024-01-06T07:14:15;14.33;;;7.97;;
57401;SDS011;43226;51.110;6.998;2024-01-06T07:16:41;14.17;;;7.90;;
57401;SDS011;43226;51.110;6.998;2024-01-06T07:19:06;16.50;;;7.13;;
57401;SDS011;43226;51.110;6.998;2024-01-06T07:21:31;16.60;;;8.00;;
57401;SDS011;43226;51.110;6.998;2024-01-06T07:23:56;16.07;;;7.90;;
57401;SDS011;43226;51.110;6.998;2024-01-06T07:26:21;16.83;;;7.67;;
57401;SDS011;43226;51.110;6.998;2024-01-06T07:28:47;13.77;;;6.93;;
57401;SDS011;43226;51.110;6.998;2024-01-06T07:31:12;18.27;;;8.53;;
57401;SDS011;43226;51.110;6.998;2024-01-06T07:33:37;17.03;;;8.43;;
57401;SDS011;43226;51.110;6.998;2024-01-06T07:36:02;14.13;;;8.30;;
57401;SDS011;43226;51.110;6.998;2024-01-06T07:38:28;19.47;;;9.03;;
57401;SDS011;43226;51.110;6.998;2024-01-06T07:40:55;17.93;;;9.10;;
57401;SDS011;43226;51.110;6.998;2024-01-06T07:43:21;16.10;;;7.97;;
57401;SDS011;43226;51.110;6.998;2024-01-06T07:45:46;16.17;;;8.30;;
57401;SDS011;43226;51.110;6.998;2024-01-06T07:48:11;18.43;;;7.47;;
57401;SDS011;43226;51.110;6.998;2024-01-06T07:50:36;19.03;;;9.67;;
57401;SDS011;43226;51.110;6.998;2024-01-06T07:53:02;16.40;;;8.90;;
57401;SDS011;43226;51.110;6.998;2024-01-06T07:55:27;15.70;;;8.60;;
57401;SDS011;43226;51.110;6.998;2024-01-06T07:57:53;16.40;;;9.00;;
57401;SDS011;43226;51.110;6.998;2024-01-06T08:00:19;16.70;;;8.83;;
57401;SDS011;43226;51.110;6.998;2024-01-06T08:02:44;19.50;;;8.70;;
57401;SDS011;43226;51.110;6.998;2024-01-06T08:05:09;14.67;;;6.97;;
57401;SDS011;43226;51.110;6.998;2024-01-06T08:07:34;21.13;;;7.80;;
57401;SDS011;43226;51.110;6.998;2024-01-06T08:10:00;14.43;;;7.83;;
57401;SDS011;43226;51.110;6.998;2024-01-06T08:12:25;17.47;;;8.93;;
57401;SDS011;43226;51.110;6.998;2024-01-06T08:14:50;13.30;;;7.23;;
57401;SDS011;43226;51.110;6.998;2024-01-06T08:17:15;18.80;;;7.63;;
57401;SDS011;43226;51.110;6.998;2024-01-06T08:19:41;21.63;;;9.40;;
57401;SDS011;43226;51.110;6.998;2024-01-06T08:22:07;25.17;;;10.23;;
57401;SDS011;43226;51.110;6.998;2024-01-06T08:24:32;16.50;;;7.87;;
57401;SDS011;43226;51.110;6.998;2024-01-06T08:26:57;15.73;;;8.37;;
57401;SDS011;43226;51.110;6.998;2024-01-06T08:29:22;13.87;;;7.77;;
57401;SDS011;43226;51.110;6.998;2024-01-06T08:31:47;14.60;;;7.17;;
57401;SDS011;43226;51.110;6.998;2024-01-06T08:34:15;20.50;;;8.97;;
57401;SDS011;43226;51.110;6.998;2024-01-06T08:36:40;17.23;;;9.47;;
57401;SDS011;43226;51.110;6.998;2024-01-06T08:39:06;19.30;;;8.47;;
57401;SDS011;43226;51.110;6.998;2024-01-06T08:41:31;14.07;;;8.37;;
57401;SDS011;43226;51.110;6.998;2024-01-06T08:43:56;17.80;;;8.57;;
57401;SDS011;43226;51.110;6.998;2024-01-06T08:46:21;17.37;;;8.10;;
57401;SDS011;43226;51.110;6.998;2024-01-06T08:48:46;24.83;;;9.37;;
57401;SDS011;43226;51.110;6.998;2024-01-06T08:51:11;16.57;;;7.30;;
57401;SDS011;43226;51.110;6.998;2024-01-06T08:53:37;17.07;;;8.23;;
57401;SDS011;43226;51.110;6.998;2024-01-06T08:56:02;18.00;;;8.63;;
57401;SDS011;43226;51.110;6.998;2024-01-06T08:58:27;16.57;;;9.23;;
57401;SDS011;43226;51.110;6.998;2024-01-06T09:00:52;16.50;;;7.27;;
57401;SDS011;43226;51.110;6.998;2024-01-06T09:03:18;19.30;;;10.00;;
57401;SDS011;43226;51.110;6.998;2024-01-06T09:05:49;21.77;;;10.50;;
57401;SDS011;43226;51.110;6.998;2024-01-06T09:08:18;20.60;;;10.67;;
57401;SDS011;43226;51.110;6.998;2024-01-06T09:10:43;20.37;;;11.60;;
57401;SDS011;43226;51.110;6.998;2024-01-06T09:13:08;22.43;;;10.37;;
57401;SDS011;43226;51.110;6.998;2024-01-06T09:15:33;24.93;;;11.53;;
57401;SDS011;43226;51.110;6.998;2024-01-06T09:17:59;23.97;;;11.67;;
57401;SDS011;43226;51.110;6.998;2024-01-06T09:20:24;21.77;;;11.20;;
57401;SDS011;43226;51.110;6.998;2024-01-06T09:22:49;28.03;;;11.70;;
57401;SDS011;43226;51.110;6.998;2024-01-06T09:25:15;21.83;;;10.07;;
57401;SDS011;43226;51.110;6.998;2024-01-06T09:27:40;23.07;;;9.93;;
57401;SDS011;43226;51.110;6.998;2024-01-06T09:30:05;21.77;;;10.97;;
57401;SDS011;43226;51.110;6.998;2024-01-06T09:32:30;24.63;;;11.70;;
57401;SDS011;43226;51.110;6.998;2024-01-06T09:34:56;28.30;;;12.47;;
57401;SDS011;43226;51.110;6.998;2024-01-06T09:37:21;18.10;;;10.57;;
57401;SDS011;43226;51.110;6.998;2024-01-06T09:39:46;22.87;;;12.60;;
57401;SDS011;43226;51.110;6.998;2024-01-06T09:42:12;20.27;;;10.07;;
57401;SDS011;43226;51.110;6.998;2024-01-06T09:44:37;28.70;;;10.50;;
57401;SDS011;43226;51.110;6.998;2024-01-06T09:47:02;21.17;;;10.90;;
57401;SDS011;43226;51.110;6.998;2024-01-06T09:49:29;24.27;;;11.27;;
57401;SDS011;43226;51.110;6.998;2024-01-06T09:51:57;18.20;;;8.73;;
57401;SDS011;43226;51.110;6.998;2024-01-06T09:54:23;21.90;;;10.30;;
57401;SDS011;43226;51.110;6.998;2024-01-06T09:56:51;24.63;;;11.77;;
57401;SDS011;43226;51.110;6.998;2024-01-06T09:59:16;22.73;;;9.97;;
57401;SDS011;43226;51.110;6.998;2024-01-06T10:01:44;21.63;;;10.57;;
57401;SDS011;43226;51.110;6.998;2024-01-06T10:04:10;22.80;;;10.33;;
57401;SDS011;43226;51.110;6.998;2024-01-06T10:06:35;22.60;;;10.00;;
57401;SDS011;43226;51.110;6.998;2024-01-06T10:09:01;23.53;;;10.23;;
57401;SDS011;43226;51.110;6.998;2024-01-06T10:11:26;23.00;;;9.90;;
57401;SDS011;43226;51.110;6.998;2024-01-06T10:13:52;21.67;;;11.30;;
57401;SDS011;43226;51.110;6.998;2024-01-06T10:16:19;25.90;;;11.43;;
57401;SDS011;43226;51.110;6.998;2024-01-06T10:18:44;24.30;;;10.10;;
57401;SDS011;43226;51.110;6.998;2024-01-06T10:21:10;22.17;;;10.20;;
57401;SDS011;43226;51.110;6.998;2024-01-06T10:23:35;25.80;;;10.57;;
57401;SDS011;43226;51.110;6.998;2024-01-06T10:26:01;25.70;;;12.00;;
57401;SDS011;43226;51.110;6.998;2024-01-06T10:28:28;23.97;;;10.97;;
57401;SDS011;43226;51.110;6.998;2024-01-06T10:30:53;29.10;;;11.70;;
57401;SDS011;43226;51.110;6.998;2024-01-06T10:33:22;30.67;;;14.63;;
57401;SDS011;43226;51.110;6.998;2024-01-06T10:35:48;26.37;;;11.73;;
57401;SDS011;43226;51.110;6.998;2024-01-06T10:38:13;25.40;;;13.43;;
57401;SDS011;43226;51.110;6.998;2024-01-06T10:40:40;32.33;;;14.13;;
57401;SDS011;43226;51.110;6.998;2024-01-06T10:43:05;25.63;;;11.93;;
57401;SDS011;43226;51.110;6.998;2024-01-06T10:45:30;23.87;;;12.27;;
57401;SDS011;43226;51.110;6.998;2024-01-06T10:47:56;27.90;;;13.60;;
57401;SDS011;43226;51.110;6.998;2024-01-06T10:50:22;26.27;;;13.10;;
57401;SDS011;43226;51.110;6.998;2024-01-06T10:52:48;28.27;;;13.40;;
57401;SDS011;43226;51.110;6.998;2024-01-06T10:55:15;32.17;;;15.03;;
57401;SDS011;43226;51.110;6.998;2024-01-06T10:57:42;31.77;;;13.43;;
57401;SDS011;43226;51.110;6.998;2024-01-06T11:00:08;29.70;;;13.63;;
57401;SDS011;43226;51.110;6.998;2024-01-06T11:02:35;34.90;;;12.90;;
57401;SDS011;43226;51.110;6.998;2024-01-06T11:05:00;28.10;;;12.50;;
57401;SDS011;43226;51.110;6.998;2024-01-06T11:07:25;26.00;;;13.20;;
57401;SDS011;43226;51.110;6.998;2024-01-06T11:09:58;24.87;;;12.00;;
57401;SDS011;43226;51.110;6.998;2024-01-06T11:12:24;27.13;;;11.23;;
57401;SDS011;43226;51.110;6.998;2024-01-06T11:14:51;28.00;;;12.50;;
57401;SDS011;43226;51.110;6.998;2024-01-06T11:20:07;26.83;;;12.27;;
57401;SDS011;43226;51.110;6.998;2024-01-06T11:22:32;38.77;;;13.97;;
57401;SDS011;43226;51.110;6.998;2024-01-06T11:27:31;28.03;;;12.60;;
57401;SDS011;43226;51.110;6.998;2024-01-06T11:29:58;32.07;;;14.60;;
57401;SDS011;43226;51.110;6.998;2024-01-06T11:34:55;27.93;;;14.50;;
57401;SDS011;43226;51.110;6.998;2024-01-06T11:37:27;40.13;;;14.47;;
57401;SDS011;43226;51.110;6.998;2024-01-06T11:39:59;32.97;;;13.90;;
57401;SDS011;43226;51.110;6.998;2024-01-06T11:42:31;30.63;;;13.53;;
57401;SDS011;43226;51.110;6.998;2024-01-06T11:44:56;26.43;;;12.73;;
57401;SDS011;43226;51.110;6.998;2024-01-06T11:47:26;30.77;;;12.13;;
57401;SDS011;43226;51.110;6.998;2024-01-06T11:49:53;29.47;;;12.60;;
57401;SDS011;43226;51.110;6.998;2024-01-06T11:52:19;29.10;;;12.47;;
57401;SDS011;43226;51.110;6.998;2024-01-06T11:54:45;33.73;;;13.00;;
57401;SDS011;43226;51.110;6.998;2024-01-06T11:57:10;32.23;;;13.60;;
57401;SDS011;43226;51.110;6.998;2024-01-06T11:59:35;27.90;;;11.73;;
57401;SDS011;43226;51.110;6.998;2024-01-06T12:02:01;22.77;;;10.70;;
57401;SDS011;43226;51.110;6.998;2024-01-06T12:04:26;35.43;;;13.83;;
57401;SDS011;43226;51.110;6.998;2024-01-06T12:06:52;32.57;;;13.60;;
57401;SDS011;43226;51.110;6.998;2024-01-06T12:09:19;37.57;;;14.10;;
57401;SDS011;43226;51.110;6.998;2024-01-06T12:11:44;37.20;;;15.37;;
57401;SDS011;43226;51.110;6.998;2024-01-06T12:14:11;33.30;;;13.67;;
57401;SDS011;43226;51.110;6.998;2024-01-06T12:16:36;31.30;;;14.20;;
57401;SDS011;43226;51.110;6.998;2024-01-06T12:19:02;27.77;;;12.20;;
57401;SDS011;43226;51.110;6.998;2024-01-06T12:21:28;28.17;;;14.00;;
57401;SDS011;43226;51.110;6.998;2024-01-06T12:23:54;31.07;;;13.43;;
57401;SDS011;43226;51.110;6.998;2024-01-06T12:26:19;32.60;;;13.57;;
57401;SDS011;43226;51.110;6.998;2024-01-06T12:28:45;40.60;;;17.23;;
57401;SDS011;43226;51.110;6.998;2024-01-06T12:31:11;38.17;;;15.83;;
57401;SDS011;43226;51.110;6.998;2024-01-06T12:33:39;48.47;;;16.50;;
57401;SDS011;43226;51.110;6.998;2024-01-06T12:36:06;36.20;;;16.10;;
57401;SDS011;43226;51.110;6.998;2024-01-06T12:38:31;37.83;;;15.13;;
57401;SDS011;43226;51.110;6.998;2024-01-06T12:40:56;30.93;;;13.47;;
57401;SDS011;43226;51.110;6.998;2024-01-06T12:43:22;37.17;;;15.07;;
57401;SDS011;43226;51.110;6.998;2024-01-06T12:45:47;32.27;;;14.17;;
57401;SDS011;43226;51.110;6.998;2024-01-06T12:48:12;33.67;;;14.80;;
57401;SDS011;43226;51.110;6.998;2024-01-06T12:50:37;32.47;;;13.63;;
57401;SDS011;43226;51.110;6.998;2024-01-06T12:53:03;34.13;;;14.83;;
57401;SDS011;43226;51.110;6.998;2024-01-06T12:55:28;32.87;;;13.20;;
57401;SDS011;43226;51.110;6.998;2024-01-06T12:57:53;23.47;;;11.87;;
57401;SDS011;43226;51.110;6.998;2024-01-06T13:00:19;26.97;;;12.20;;
57401;SDS011;43226;51.110;6.998;2024-01-06T13:02:44;24.53;;;11.93;;
57401;SDS011;43226;51.110;6.998;2024-01-06T13:05:09;21.60;;;10.83;;
57401;SDS011;43226;51.110;6.998;2024-01-06T13:07:34;23.03;;;10.23;;
57401;SDS011;43226;51.110;6.998;2024-01-06T13:10:00;27.80;;;10.33;;
57401;SDS011;43226;51.110;6.998;2024-01-06T13:12:25;19.47;;;10.00;;
57401;SDS011;43226;51.110;6.998;2024-01-06T13:14:51;24.47;;;13.23;;
57401;SDS011;43226;51.110;6.998;2024-01-06T13:17:17;24.00;;;10.90;;
57401;SDS011;43226;51.110;6.998;2024-01-06T13:19:42;29.57;;;10.63;;
57401;SDS011;43226;51.110;6.998;2024-01-06T13:22:07;22.67;;;9.70;;
57401;SDS011;43226;51.110;6.998;2024-01-06T13:24:32;30.33;;;13.57;;
57401;SDS011;43226;51.110;6.998;2024-01-06T13:26:57;19.93;;;10.23;;
57401;SDS011;43226;51.110;6.998;2024-01-06T13:29:23;27.10;;;11.67;;
57401;SDS011;43226;51.110;6.998;2024-01-06T13:31:49;28.53;;;11.50;;
57401;SDS011;43226;51.110;6.998;2024-01-06T13:34:14;23.90;;;11.30;;
57401;SDS011;43226;51.110;6.998;2024-01-06T13:36:39;25.07;;;11.67;;
57401;SDS011;43226;51.110;6.998;2024-01-06T13:39:04;21.57;;;10.67;;
57401;SDS011;43226;51.110;6.998;2024-01-06T13:41:30;25.67;;;13.00;;
57401;SDS011;43226;51.110;6.998;2024-01-06T13:43:56;30.43;;;12.70;;
57401;SDS011;43226;51.110;6.998;2024-01-06T13:46:21;31.27;;;13.80;;
57401;SDS011;43226;51.110;6.998;2024-01-06T13:48:46;29.70;;;13.20;;
57401;SDS011;43226;51.110;6.998;2024-01-06T13:51:11;30.93;;;13.07;;
57401;SDS011;43226;51.110;6.998;2024-01-06T13:53:36;30.33;;;13.30;;
57401;SDS011;43226;51.110;6.998;2024-01-06T13:56:02;31.80;;;12.80;;
57401;SDS011;43226;51.110;6.998;2024-01-06T13:58:28;25.07;;;12.23;;
57401;SDS011;43226;51.110;6.998;2024-01-06T14:00:53;32.20;;;13.50;;
57401;SDS011;43226;51.110;6.998;2024-01-06T14:03:18;32.30;;;13.33;;
57401;SDS011;43226;51.110;6.998;2024-01-06T14:05:43;30.77;;;13.10;;
57401;SDS011;43226;51.110;6.998;2024-01-06T14:08:08;30.93;;;13.23;;
57401;SDS011;43226;51.110;6.998;2024-01-06T14:10:34;37.03;;;14.50;;
57401;SDS011;43226;51.110;6.998;2024-01-06T14:12:59;39.30;;;15.17;;
57401;SDS011;43226;51.110;6.998;2024-01-06T14:15:25;36.27;;;14.73;;
57401;SDS011;43226;51.110;6.998;2024-01-06T14:17:52;36.97;;;14.30;;
57401;SDS011;43226;51.110;6.998;2024-01-06T14:20:17;34.00;;;15.53;;
57401;SDS011;43226;51.110;6.998;2024-01-06T14:22:43;34.93;;;15.60;;